sensor_id;sensor_type;location;lat;lon;timestamp;P1;durP1;ratioP1;P2;durP2;ratioP2
48285;SDS011;34102;47.716;10.296;2023-04-03T03:48:50;9.80;;;6.50;;
48285;SDS011;34102;47.716;10.296;2023-04-03T03:51:16;9.30;;;5.75;;
48285;SDS011;34102;47.716;10.296;2023-04-03T03:53:43;9.90;;;6.57;;
48285;SDS011;34102;47.716;10.296;2023-04-03T03:56:12;9.82;;;6.10;;
48285;SDS011;34102;47.716;10.296;2023-04-03T04:01:08;9.77;;;6.75;;
48285;SDS011;34102;47.716;10.296;2023-04-03T04:03:39;15.10;;;6.97;;
48285;SDS011;34102;47.716;10.296;2023-04-03T04:06:10;11.43;;;7.22;;
48285;SDS011;34102;47.716;10.296;2023-04-03T04:08:36;8.80;;;6.47;;
48285;SDS011;34102;47.716;10.296;2023-04-03T04:11:03;9.95;;;6.35;;
48285;SDS011;34102;47.716;10.296;2023-04-03T04:13:29;10.00;;;6.72;;
48285;SDS011;34102;47.716;10.296;2023-04-03T04:15:55;9.63;;;6.18;;
48285;SDS011;34102;47.716;10.296;2023-04-03T04:18:20;9.98;;;6.95;;
48285;SDS011;34102;47.716;10.296;2023-04-03T04:20:47;13.18;;;6.78;;
48285;SDS011;34102;47.716;10.296;2023-04-03T04:23:15;9.02;;;6.30;;
48285;SDS011;34102;47.716;10.296;2023-04-03T04:25:43;10.90;;;7.03;;
48285;SDS011;34102;47.716;10.296;2023-04-03T04:28:09;8.32;;;6.20;;
48285;SDS011;34102;47.716;10.296;2023-04-03T04:30:35;10.27;;;7.20;;
48285;SDS011;34102;47.716;10.296;2023-04-03T04:33:01;12.95;;;6.97;;
48285;SDS011;34102;47.716;10.296;2023-04-03T04:35:26;10.60;;;6.53;;
48285;SDS011;34102;47.716;10.296;2023-04-03T04:37:52;9.30;;;6.57;;
48285;SDS011;34102;47.716;10.296;2023-04-03T04:40:17;13.30;;;6.75;;
48285;SDS011;34102;47.716;10.296;2023-04-03T04:42:43;10.77;;;6.22;;
48285;SDS011;34102;47.716;10.296;2023-04-03T04:45:09;8.55;;;6.10;;
48285;SDS011;34102;47.716;10.296;2023-04-03T04:47:37;10.55;;;6.88;;
48285;SDS011;34102;47.716;10.296;2023-04-03T04:50:03;11.90;;;7.07;;
48285;SDS011;34102;47.716;10.296;2023-04-03T04:52:30;7.90;;;5.95;;
48285;SDS011;34102;47.716;10.296;2023-04-03T04:54:55;9.70;;;5.88;;
48285;SDS011;34102;47.716;10.296;2023-04-03T04:57:21;9.23;;;6.22;;
48285;SDS011;34102;47.716;10.296;2023-04-03T04:59:46;7.90;;;6.25;;
48285;SDS011;34102;47.716;10.296;2023-04-03T05:02:12;10.52;;;6.28;;
48285;SDS011;34102;47.716;10.296;2023-04-03T05:04:39;8.32;;;5.57;;
48285;SDS011;34102;47.716;10.296;2023-04-03T05:07:10;8.75;;;5.85;;
48285;SDS011;34102;47.716;10.296;2023-04-03T05:09:36;7.97;;;5.40;;
48285;SDS011;34102;47.716;10.296;2023-04-03T05:12:02;7.93;;;5.80;;
48285;SDS011;34102;47.716;10.296;2023-04-03T05:14:34;9.55;;;5.40;;
48285;SDS011;34102;47.716;10.296;2023-04-03T05:17:05;7.47;;;5.03;;
48285;SDS011;34102;47.716;10.296;2023-04-03T05:19:33;6.70;;;5.10;;
48285;SDS011;34102;47.716;10.296;2023-04-03T05:21:59;8.30;;;4.88;;
48285;SDS011;34102;47.716;10.296;2023-04-03T05:24:25;8.52;;;4.95;;
48285;SDS011;34102;47.716;10.296;2023-04-03T05:26:53;8.60;;;5.63;;
48285;SDS011;34102;47.716;10.296;2023-04-03T05:29:20;7.38;;;4.88;;
48285;SDS011;34102;47.716;10.296;2023-04-03T05:31:46;4.88;;;4.07;;
48285;SDS011;34102;47.716;10.296;2023-04-03T05:34:13;6.55;;;4.43;;
48285;SDS011;34102;47.716;10.296;2023-04-03T05:36:40;6.90;;;5.20;;
48285;SDS011;34102;47.716;10.296;2023-04-03T05:39:07;6.50;;;4.20;;
48285;SDS011;34102;47.716;10.296;2023-04-03T05:41:36;6.20;;;4.65;;
48285;SDS011;34102;47.716;10.296;2023-04-03T05:44:02;7.15;;;5.22;;
48285;SDS011;34102;47.716;10.296;2023-04-03T05:46:27;6.88;;;4.80;;
48285;SDS011;34102;47.716;10.296;2023-04-03T05:48:55;6.30;;;4.32;;
48285;SDS011;34102;47.716;10.296;2023-04-03T05:51:25;10.15;;;4.80;;
48285;SDS011;34102;47.716;10.296;2023-04-03T05:53:59;5.63;;;4.32;;
48285;SDS011;34102;47.716;10.296;2023-04-03T05:56:29;5.95;;;4.47;;
48285;SDS011;34102;47.716;10.296;2023-04-03T05:58:54;7.15;;;4.72;;
48285;SDS011;34102;47.716;10.296;2023-04-03T06:01:20;5.82;;;4.30;;
48285;SDS011;34102;47.716;10.296;2023-04-03T06:03:48;5.05;;;3.80;;
48285;SDS011;34102;47.716;10.296;2023-04-03T06:06:13;7.00;;;4.70;;
48285;SDS011;34102;47.716;10.296;2023-04-03T06:08:39;5.22;;;3.90;;
48285;SDS011;34102;47.716;10.296;2023-04-03T06:11:06;7.43;;;5.13;;
48285;SDS011;34102;47.716;10.296;2023-04-03T06:13:32;5.82;;;4.00;;
48285;SDS011;34102;47.716;10.296;2023-04-03T06:15:58;7.28;;;4.35;;
48285;SDS011;34102;47.716;10.296;2023-04-03T06:18:24;5.80;;;4.50;;
48285;SDS011;34102;47.716;10.296;2023-04-03T06:20:49;6.68;;;4.50;;
48285;SDS011;34102;47.716;10.296;2023-04-03T06:23:15;6.20;;;4.60;;
48285;SDS011;34102;47.716;10.296;2023-04-03T06:25:41;6.72;;;5.38;;
48285;SDS011;34102;47.716;10.296;2023-04-03T06:28:07;5.88;;;4.40;;
48285;SDS011;34102;47.716;10.296;2023-04-03T06:30:34;8.25;;;4.65;;
48285;SDS011;34102;47.716;10.296;2023-04-03T06:33:00;7.55;;;4.55;;
48285;SDS011;34102;47.716;10.296;2023-04-03T06:35:25;5.32;;;3.92;;
48285;SDS011;34102;47.716;10.296;2023-04-03T06:37:53;5.72;;;4.30;;
48285;SDS011;34102;47.716;10.296;2023-04-03T06:40:20;6.40;;;3.80;;
48285;SDS011;34102;47.716;10.296;2023-04-03T06:42:46;8.45;;;3.90;;
48285;SDS011;34102;47.716;10.296;2023-04-03T06:45:12;5.47;;;3.92;;
48285;SDS011;34102;47.716;10.296;2023-04-03T06:47:37;5.28;;;4.00;;
48285;SDS011;34102;47.716;10.296;2023-04-03T06:50:02;5.90;;;4.43;;
48285;SDS011;34102;47.716;10.296;2023-04-03T06:52:29;6.20;;;4.40;;
48285;SDS011;34102;47.716;10.296;2023-04-03T06:54:55;6.15;;;4.25;;
48285;SDS011;34102;47.716;10.296;2023-04-03T06:57:24;5.50;;;4.65;;
48285;SDS011;34102;47.716;10.296;2023-04-03T06:59:50;5.75;;;4.65;;
48285;SDS011;34102;47.716;10.296;2023-04-03T07:02:15;7.00;;;4.22;;
48285;SDS011;34102;47.716;10.296;2023-04-03T07:04:41;6.35;;;4.40;;
48285;SDS011;34102;47.716;10.296;2023-04-03T07:07:06;8.18;;;5.03;;
48285;SDS011;34102;47.716;10.296;2023-04-03T07:09:32;6.38;;;4.57;;
48285;SDS011;34102;47.716;10.296;2023-04-03T07:11:58;7.50;;;5.00;;
48285;SDS011;34102;47.716;10.296;2023-04-03T07:14:23;7.93;;;5.25;;
48285;SDS011;34102;47.716;10.296;2023-04-03T07:16:48;6.38;;;4.78;;
48285;SDS011;34102;47.716;10.296;2023-04-03T07:19:14;6.93;;;5.32;;
48285;SDS011;34102;47.716;10.296;2023-04-03T07:21:40;7.07;;;4.95;;
48285;SDS011;34102;47.716;10.296;2023-04-03T07:24:07;8.98;;;5.15;;
48285;SDS011;34102;47.716;10.296;2023-04-03T07:26:32;7.63;;;4.80;;
48285;SDS011;34102;47.716;10.296;2023-04-03T07:28:58;8.48;;;5.80;;
48285;SDS011;34102;47.716;10.296;2023-04-03T07:31:23;7.05;;;5.25;;
48285;SDS011;34102;47.716;10.296;2023-04-03T07:33:52;6.60;;;4.60;;
48285;SDS011;34102;47.716;10.296;2023-04-03T07:36:18;7.55;;;5.40;;
48285;SDS011;34102;47.716;10.296;2023-04-03T07:38:44;6.70;;;5.03;;
48285;SDS011;34102;47.716;10.296;2023-04-03T07:41:17;8.02;;;5.25;;
48285;SDS011;34102;47.716;10.296;2023-04-03T07:43:43;9.75;;;5.40;;
48285;SDS011;34102;47.716;10.296;2023-04-03T07:46:09;7.35;;;5.90;;
48285;SDS011;34102;47.716;10.296;2023-04-03T07:48:34;7.88;;;5.65;;
48285;SDS011;34102;47.716;10.296;2023-04-03T07:51:01;7.85;;;5.60;;
48285;SDS011;34102;47.716;10.296;2023-04-03T07:53:27;10.02;;;6.30;;
48285;SDS011;34102;47.716;10.296;2023-04-03T07:55:58;7.10;;;5.70;;
48285;SDS011;34102;47.716;10.296;2023-04-03T07:58:28;8.63;;;5.80;;
48285;SDS011;34102;47.716;10.296;2023-04-03T08:00:53;10.60;;;7.22;;
48285;SDS011;34102;47.716;10.296;2023-04-03T08:03:18;9.25;;;6.55;;
48285;SDS011;34102;47.716;10.296;2023-04-03T08:05:45;10.98;;;6.50;;
48285;SDS011;34102;47.716;10.296;2023-04-03T08:08:12;9.25;;;6.32;;
48285;SDS011;34102;47.716;10.296;2023-04-03T08:10:38;8.95;;;6.43;;
48285;SDS011;34102;47.716;10.296;2023-04-03T08:13:04;12.27;;;6.18;;
48285;SDS011;34102;47.716;10.296;2023-04-03T08:15:30;10.63;;;6.55;;
48285;SDS011;34102;47.716;10.296;2023-04-03T08:17:55;9.18;;;6.93;;
48285;SDS011;34102;47.716;10.296;2023-04-03T08:20:21;11.05;;;7.40;;
48285;SDS011;34102;47.716;10.296;2023-04-03T08:22:46;12.50;;;6.93;;
48285;SDS011;34102;47.716;10.296;2023-04-03T08:25:12;8.52;;;6.47;;
48285;SDS011;34102;47.716;10.296;2023-04-03T08:27:44;9.13;;;5.97;;
48285;SDS011;34102;47.716;10.296;2023-04-03T08:30:10;8.65;;;6.28;;
48285;SDS011;34102;47.716;10.296;2023-04-03T08:32:36;9.60;;;5.70;;
48285;SDS011;34102;47.716;10.296;2023-04-03T08:35:04;9.88;;;6.60;;
48285;SDS011;34102;47.716;10.296;2023-04-03T08:37:30;10.13;;;6.53;;
48285;SDS011;34102;47.716;10.296;2023-04-03T08:39:55;12.48;;;6.32;;
48285;SDS011;34102;47.716;10.296;2023-04-03T08:44:55;8.13;;;5.35;;
48285;SDS011;34102;47.716;10.296;2023-04-03T08:50:07;7.90;;;5.65;;
48285;SDS011;34102;47.716;10.296;2023-04-03T08:52:46;8.38;;;5.75;;
48285;SDS011;34102;47.716;10.296;2023-04-03T08:55:20;6.25;;;4.85;;
48285;SDS011;34102;47.716;10.296;2023-04-03T08:57:57;7.20;;;5.30;;
48285;SDS011;34102;47.716;10.296;2023-04-03T09:00:25;6.53;;;5.40;;
48285;SDS011;34102;47.716;10.296;2023-04-03T09:02:53;8.43;;;4.80;;
48285;SDS011;34102;47.716;10.296;2023-04-03T09:05:41;7.15;;;4.70;;
48285;SDS011;34102;47.716;10.296;2023-04-03T09:08:09;7.43;;;5.03;;
48285;SDS011;34102;47.716;10.296;2023-04-03T09:10:40;8.38;;;4.90;;
48285;SDS011;34102;47.716;10.296;2023-04-03T09:13:30;8.32;;;4.38;;
48285;SDS011;34102;47.716;10.296;2023-04-03T09:15:52;4.93;;;3.75;;
48285;SDS011;34102;47.716;10.296;2023-04-03T09:18:41;7.72;;;4.50;;
48285;SDS011;34102;47.716;10.296;2023-04-03T09:21:08;5.97;;;4.63;;
48285;SDS011;34102;47.716;10.296;2023-04-03T09:23:51;5.70;;;4.28;;
48285;SDS011;34102;47.716;10.296;2023-04-03T09:26:18;4.75;;;3.60;;
48285;SDS011;34102;47.716;10.296;2023-04-03T09:28:44;5.60;;;3.65;;
48285;SDS011;34102;47.716;10.296;2023-04-03T09:33:42;5.60;;;4.10;;
48285;SDS011;34102;47.716;10.296;2023-04-03T09:36:07;5.95;;;3.58;;
48285;SDS011;34102;47.716;10.296;2023-04-03T09:38:33;4.97;;;3.65;;
48285;SDS011;34102;47.716;10.296;2023-04-03T09:41:06;6.85;;;3.90;;
48285;SDS011;34102;47.716;10.296;2023-04-03T09:43:32;4.95;;;3.80;;
48285;SDS011;34102;47.716;10.296;2023-04-03T09:48:57;5.20;;;3.67;;
48285;SDS011;34102;47.716;10.296;2023-04-03T09:51:26;4.18;;;3.20;;
48285;SDS011;34102;47.716;10.296;2023-04-03T09:53:54;4.60;;;3.60;;
48285;SDS011;34102;47.716;10.296;2023-04-03T09:56:25;4.88;;;3.60;;
48285;SDS011;34102;47.716;10.296;2023-04-03T10:06:37;6.20;;;3.28;;
48285;SDS011;34102;47.716;10.296;2023-04-03T10:09:13;4.22;;;3.08;;
48285;SDS011;34102;47.716;10.296;2023-04-03T10:11:56;3.80;;;3.00;;
48285;SDS011;34102;47.716;10.296;2023-04-03T10:14:22;4.60;;;3.10;;
48285;SDS011;34102;47.716;10.296;2023-04-03T10:16:53;3.30;;;2.58;;
48285;SDS011;34102;47.716;10.296;2023-04-03T10:19:31;5.25;;;2.72;;
48285;SDS011;34102;47.716;10.296;2023-04-03T10:32:45;3.47;;;2.60;;
48285;SDS011;34102;47.716;10.296;2023-04-03T10:35:25;8.52;;;2.40;;
48285;SDS011;34102;47.716;10.296;2023-04-03T10:40:32;2.70;;;2.30;;
48285;SDS011;34102;47.716;10.296;2023-04-03T10:46:03;3.10;;;2.40;;
48285;SDS011;34102;47.716;10.296;2023-04-03T10:54:05;6.13;;;2.40;;
48285;SDS011;34102;47.716;10.296;2023-04-03T11:01:32;3.20;;;2.40;;
48285;SDS011;34102;47.716;10.296;2023-04-03T11:03:59;4.30;;;2.80;;
48285;SDS011;34102;47.716;10.296;2023-04-03T11:06:28;3.20;;;2.45;;
48285;SDS011;34102;47.716;10.296;2023-04-03T11:09:00;3.55;;;2.70;;
48285;SDS011;34102;47.716;10.296;2023-04-03T11:11:37;6.75;;;2.65;;
48285;SDS011;34102;47.716;10.296;2023-04-03T11:14:05;4.43;;;2.65;;
48285;SDS011;34102;47.716;10.296;2023-04-03T11:16:37;3.90;;;2.42;;
48285;SDS011;34102;47.716;10.296;2023-04-03T11:21:36;3.38;;;2.40;;
48285;SDS011;34102;47.716;10.296;2023-04-03T11:24:05;5.15;;;2.80;;
48285;SDS011;34102;47.716;10.296;2023-04-03T11:26:38;2.72;;;2.10;;
48285;SDS011;34102;47.716;10.296;2023-04-03T11:29:12;5.15;;;2.70;;
48285;SDS011;34102;47.716;10.296;2023-04-03T11:37:03;3.00;;;2.50;;
48285;SDS011;34102;47.716;10.296;2023-04-03T11:39:34;3.63;;;2.28;;
48285;SDS011;34102;47.716;10.296;2023-04-03T11:42:19;3.63;;;2.20;;
48285;SDS011;34102;47.716;10.296;2023-04-03T11:44:55;3.42;;;2.40;;
48285;SDS011;34102;47.716;10.296;2023-04-03T11:47:44;5.40;;;2.97;;
48285;SDS011;34102;47.716;10.296;2023-04-03T11:52:58;3.58;;;3.17;;
48285;SDS011;34102;47.716;10.296;2023-04-03T12:13:37;3.92;;;2.67;;
48285;SDS011;34102;47.716;10.296;2023-04-03T12:16:07;4.47;;;2.97;;
48285;SDS011;34102;47.716;10.296;2023-04-03T12:21:19;3.72;;;2.30;;
48285;SDS011;34102;47.716;10.296;2023-04-03T12:26:25;3.63;;;2.60;;
48285;SDS011;34102;47.716;10.296;2023-04-03T12:28:52;5.32;;;3.00;;
48285;SDS011;34102;47.716;10.296;2023-04-03T12:31:18;4.60;;;3.03;;
48285;SDS011;34102;47.716;10.296;2023-04-03T12:36:26;4.35;;;3.33;;
48285;SDS011;34102;47.716;10.296;2023-04-03T12:38:57;6.60;;;3.40;;
48285;SDS011;34102;47.716;10.296;2023-04-03T12:51:53;4.07;;;2.83;;
48285;SDS011;34102;47.716;10.296;2023-04-03T12:54:22;3.90;;;3.00;;
48285;SDS011;34102;47.716;10.296;2023-04-03T12:59:25;3.63;;;2.78;;
48285;SDS011;34102;47.716;10.296;2023-04-03T13:01:58;3.85;;;2.63;;
48285;SDS011;34102;47.716;10.296;2023-04-03T13:04:24;4.53;;;2.90;;
48285;SDS011;34102;47.716;10.296;2023-04-03T13:06:49;3.15;;;2.33;;
48285;SDS011;34102;47.716;10.296;2023-04-03T13:09:23;3.67;;;2.60;;
48285;SDS011;34102;47.716;10.296;2023-04-03T13:11:49;5.72;;;3.38;;
48285;SDS011;34102;47.716;10.296;2023-04-03T13:14:22;4.15;;;2.60;;
48285;SDS011;34102;47.716;10.296;2023-04-03T13:16:54;3.90;;;2.28;;
48285;SDS011;34102;47.716;10.296;2023-04-03T13:43:50;3.17;;;2.50;;
48285;SDS011;34102;47.716;10.296;2023-04-03T13:48:42;6.25;;;3.13;;
48285;SDS011;34102;47.716;10.296;2023-04-03T13:53:47;4.28;;;2.30;;
48285;SDS011;34102;47.716;10.296;2023-04-03T13:56:18;3.55;;;2.60;;
48285;SDS011;34102;47.716;10.296;2023-04-03T13:58:54;5.70;;;2.75;;
48285;SDS011;34102;47.716;10.296;2023-04-03T14:01:21;3.75;;;2.58;;
48285;SDS011;34102;47.716;10.296;2023-04-03T14:03:59;4.18;;;2.70;;
48285;SDS011;34102;47.716;10.296;2023-04-03T14:06:26;4.55;;;2.85;;
48285;SDS011;34102;47.716;10.296;2023-04-03T14:08:52;3.20;;;2.40;;
48285;SDS011;34102;47.716;10.296;2023-04-03T14:11:19;3.70;;;2.42;;
48285;SDS011;34102;47.716;10.296;2023-04-03T14:13:46;3.97;;;2.58;;
48285;SDS011;34102;47.716;10.296;2023-04-03T14:16:37;3.75;;;2.80;;
48285;SDS011;34102;47.716;10.296;2023-04-03T14:19:03;3.60;;;2.70;;
48285;SDS011;34102;47.716;10.296;2023-04-03T14:21:29;5.28;;;2.67;;
48285;SDS011;34102;47.716;10.296;2023-04-03T15:38:44;4.78;;;2.85;;
48285;SDS011;34102;47.716;10.296;2023-04-03T15:41:10;4.82;;;3.00;;
48285;SDS011;34102;47.716;10.296;2023-04-03T15:43:35;5.57;;;2.45;;
48285;SDS011;34102;47.716;10.296;2023-04-03T15:46:01;6.15;;;3.08;;
48285;SDS011;34102;47.716;10.296;2023-04-03T15:48:26;6.05;;;3.63;;
48285;SDS011;34102;47.716;10.296;2023-04-03T15:50:52;4.72;;;2.70;;
48285;SDS011;34102;47.716;10.296;2023-04-03T15:53:18;5.55;;;2.83;;
48285;SDS011;34102;47.716;10.296;2023-04-03T15:55:43;8.40;;;3.03;;
48285;SDS011;34102;47.716;10.296;2023-04-03T15:58:09;6.72;;;3.20;;
48285;SDS011;34102;47.716;10.296;2023-04-03T16:00:34;5.35;;;3.03;;
48285;SDS011;34102;47.716;10.296;2023-04-03T16:03:10;4.43;;;2.90;;
48285;SDS011;34102;47.716;10.296;2023-04-03T16:05:38;4.22;;;3.00;;
48285;SDS011;34102;47.716;10.296;2023-04-03T16:08:05;6.90;;;3.22;;
48285;SDS011;34102;47.716;10.296;2023-04-03T16:10:31;5.00;;;2.60;;
48285;SDS011;34102;47.716;10.296;2023-04-03T16:12:56;7.07;;;2.83;;
48285;SDS011;34102;47.716;10.296;2023-04-03T16:15:22;3.90;;;2.30;;
48285;SDS011;34102;47.716;10.296;2023-04-03T16:17:50;9.38;;;4.05;;
48285;SDS011;34102;47.716;10.296;2023-04-03T16:20:15;6.63;;;3.65;;
48285;SDS011;34102;47.716;10.296;2023-04-03T16:22:41;3.80;;;2.72;;
48285;SDS011;34102;47.716;10.296;2023-04-03T16:25:07;4.20;;;2.45;;
48285;SDS011;34102;47.716;10.296;2023-04-03T16:27:36;3.85;;;2.40;;
48285;SDS011;34102;47.716;10.296;2023-04-03T16:30:04;4.93;;;2.10;;
48285;SDS011;34102;47.716;10.296;2023-04-03T16:32:30;3.05;;;2.00;;
48285;SDS011;34102;47.716;10.296;2023-04-03T16:34:58;3.67;;;2.10;;
48285;SDS011;34102;47.716;10.296;2023-04-03T16:37:24;3.72;;;2.55;;
48285;SDS011;34102;47.716;10.296;2023-04-03T16:39:50;3.40;;;2.35;;
48285;SDS011;34102;47.716;10.296;2023-04-03T16:42:15;3.80;;;2.13;;
48285;SDS011;34102;47.716;10.296;2023-04-03T16:44:41;4.40;;;2.75;;
48285;SDS011;34102;47.716;10.296;2023-04-03T16:47:06;5.13;;;3.10;;
48285;SDS011;34102;47.716;10.296;2023-04-03T16:49:33;4.70;;;2.78;;
48285;SDS011;34102;47.716;10.296;2023-04-03T16:52:00;5.38;;;2.35;;
48285;SDS011;34102;47.716;10.296;2023-04-03T16:54:26;3.50;;;1.73;;
48285;SDS011;34102;47.716;10.296;2023-04-03T16:56:51;7.00;;;2.22;;
48285;SDS011;34102;47.716;10.296;2023-04-03T16:59:17;5.28;;;2.50;;
48285;SDS011;34102;47.716;10.296;2023-04-03T17:01:43;4.45;;;2.30;;
48285;SDS011;34102;47.716;10.296;2023-04-03T17:04:08;2.95;;;2.17;;
48285;SDS011;34102;47.716;10.296;2023-04-03T17:06:34;3.45;;;2.40;;
48285;SDS011;34102;47.716;10.296;2023-04-03T17:09:00;3.10;;;1.48;;
48285;SDS011;34102;47.716;10.296;2023-04-03T17:11:26;3.67;;;1.55;;
48285;SDS011;34102;47.716;10.296;2023-04-03T17:13:52;4.38;;;2.40;;
48285;SDS011;34102;47.716;10.296;2023-04-03T17:16:18;3.90;;;1.80;;
48285;SDS011;34102;47.716;10.296;2023-04-03T17:18:44;3.10;;;2.10;;
48285;SDS011;34102;47.716;10.296;2023-04-03T17:21:10;5.00;;;1.67;;
48285;SDS011;34102;47.716;10.296;2023-04-03T17:23:36;4.75;;;1.80;;
48285;SDS011;34102;47.716;10.296;2023-04-03T17:26:03;4.47;;;2.10;;
48285;SDS011;34102;47.716;10.296;2023-04-03T17:28:28;4.00;;;1.70;;
48285;SDS011;34102;47.716;10.296;2023-04-03T17:30:55;6.05;;;2.20;;
48285;SDS011;34102;47.716;10.296;2023-04-03T17:33:21;3.25;;;1.63;;
48285;SDS011;34102;47.716;10.296;2023-04-03T17:35:46;5.15;;;2.05;;
48285;SDS011;34102;47.716;10.296;2023-04-03T17:38:12;3.53;;;1.63;;
48285;SDS011;34102;47.716;10.296;2023-04-03T17:40:37;4.60;;;1.85;;
48285;SDS011;34102;47.716;10.296;2023-04-03T17:43:04;3.60;;;1.92;;
48285;SDS011;34102;47.716;10.296;2023-04-03T17:45:29;4.22;;;1.95;;
48285;SDS011;34102;47.716;10.296;2023-04-03T17:47:55;4.93;;;1.77;;
48285;SDS011;34102;47.716;10.296;2023-04-03T17:50:20;3.33;;;1.90;;
48285;SDS011;34102;47.716;10.296;2023-04-03T17:52:45;2.40;;;1.85;;
48285;SDS011;34102;47.716;10.296;2023-04-03T17:55:11;5.65;;;2.72;;
48285;SDS011;34102;47.716;10.296;2023-04-03T17:57:37;3.05;;;1.83;;
48285;SDS011;34102;47.716;10.296;2023-04-03T18:00:03;3.80;;;1.55;;
48285;SDS011;34102;47.716;10.296;2023-04-03T18:02:37;4.72;;;2.17;;
48285;SDS011;34102;47.716;10.296;2023-04-03T18:05:03;3.85;;;2.03;;
48285;SDS011;34102;47.716;10.296;2023-04-03T18:07:28;3.38;;;2.03;;
48285;SDS011;34102;47.716;10.296;2023-04-03T18:09:54;3.67;;;2.38;;
48285;SDS011;34102;47.716;10.296;2023-04-03T18:12:20;4.82;;;2.35;;
48285;SDS011;34102;47.716;10.296;2023-04-03T18:14:46;12.45;;;2.85;;
48285;SDS011;34102;47.716;10.296;2023-04-03T18:17:12;22.67;;;5.82;;
48285;SDS011;34102;47.716;10.296;2023-04-03T18:19:37;8.30;;;3.85;;
48285;SDS011;34102;47.716;10.296;2023-04-03T18:22:04;5.22;;;2.40;;
48285;SDS011;34102;47.716;10.296;2023-04-03T18:24:33;4.82;;;2.85;;
48285;SDS011;34102;47.716;10.296;2023-04-03T18:27:01;5.68;;;1.90;;
48285;SDS011;34102;47.716;10.296;2023-04-03T18:29:30;4.50;;;2.10;;
48285;SDS011;34102;47.716;10.296;2023-04-03T18:31:56;4.13;;;1.60;;
48285;SDS011;34102;47.716;10.296;2023-04-03T18:34:23;5.00;;;2.22;;
48285;SDS011;34102;47.716;10.296;2023-04-03T18:36:48;6.15;;;3.40;;
48285;SDS011;34102;47.716;10.296;2023-04-03T18:39:13;6.15;;;2.42;;
48285;SDS011;34102;47.716;10.296;2023-04-03T18:41:39;5.93;;;3.22;;
48285;SDS011;34102;47.716;10.296;2023-04-03T18:44:06;5.35;;;2.28;;
48285;SDS011;34102;47.716;10.296;2023-04-03T18:46:38;5.10;;;2.08;;
48285;SDS011;34102;47.716;10.296;2023-04-03T18:49:03;3.28;;;1.70;;
48285;SDS011;34102;47.716;10.296;2023-04-03T18:51:29;4.13;;;2.15;;
48285;SDS011;34102;47.716;10.296;2023-04-03T18:53:54;4.15;;;1.98;;
48285;SDS011;34102;47.716;10.296;2023-04-03T18:56:20;2.92;;;1.40;;
48285;SDS011;34102;47.716;10.296;2023-04-03T18:58:46;2.58;;;1.38;;
48285;SDS011;34102;47.716;10.296;2023-04-03T19:01:12;6.80;;;1.75;;
48285;SDS011;34102;47.716;10.296;2023-04-03T19:03:38;4.75;;;1.83;;
48285;SDS011;34102;47.716;10.296;2023-04-03T19:06:03;4.25;;;2.03;;
48285;SDS011;34102;47.716;10.296;2023-04-03T19:08:29;5.55;;;1.98;;
48285;SDS011;34102;47.716;10.296;2023-04-03T19:10:54;4.13;;;2.38;;
48285;SDS011;34102;47.716;10.296;2023-04-03T19:13:20;4.32;;;2.22;;
48285;SDS011;34102;47.716;10.296;2023-04-03T19:15:45;5.55;;;2.42;;
48285;SDS011;34102;47.716;10.296;2023-04-03T19:18:11;7.10;;;2.28;;
48285;SDS011;34102;47.716;10.296;2023-04-03T19:20:37;2.40;;;1.38;;
48285;SDS011;34102;47.716;10.296;2023-04-03T19:23:02;2.75;;;1.50;;
48285;SDS011;34102;47.716;10.296;2023-04-03T19:25:28;2.88;;;1.30;;
48285;SDS011;34102;47.716;10.296;2023-04-03T19:27:53;3.45;;;1.40;;
48285;SDS011;34102;47.716;10.296;2023-04-03T19:30:19;4.07;;;2.03;;
48285;SDS011;34102;47.716;10.296;2023-04-03T19:32:44;3.20;;;1.20;;
48285;SDS011;34102;47.716;10.296;2023-04-03T19:35:10;3.05;;;1.77;;
48285;SDS011;34102;47.716;10.296;2023-04-03T19:37:36;6.78;;;1.50;;
48285;SDS011;34102;47.716;10.296;2023-04-03T19:40:01;3.83;;;1.40;;
48285;SDS011;34102;47.716;10.296;2023-04-03T19:42:27;4.90;;;1.67;;
48285;SDS011;34102;47.716;10.296;2023-04-03T19:44:53;3.60;;;1.80;;
48285;SDS011;34102;47.716;10.296;2023-04-03T19:47:18;15.50;;;2.45;;
48285;SDS011;34102;47.716;10.296;2023-04-03T19:49:46;5.95;;;1.80;;
48285;SDS011;34102;47.716;10.296;2023-04-03T19:52:12;2.35;;;1.30;;
48285;SDS011;34102;47.716;10.296;2023-04-03T19:54:38;4.15;;;2.10;;
48285;SDS011;34102;47.716;10.296;2023-04-03T19:57:03;3.28;;;1.50;;
48285;SDS011;34102;47.716;10.296;2023-04-03T19:59:29;4.63;;;1.30;;
48285;SDS011;34102;47.716;10.296;2023-04-03T20:01:54;4.00;;;1.38;;
48285;SDS011;34102;47.716;10.296;2023-04-03T20:04:21;4.03;;;1.45;;
48285;SDS011;34102;47.716;10.296;2023-04-03T20:06:46;3.28;;;1.50;;
48285;SDS011;34102;47.716;10.296;2023-04-03T20:09:12;4.40;;;1.25;;
48285;SDS011;34102;47.716;10.296;2023-04-03T20:11:37;2.55;;;1.30;;
48285;SDS011;34102;47.716;10.296;2023-04-03T20:14:04;5.13;;;1.40;;
48285;SDS011;34102;47.716;10.296;2023-04-03T20:16:29;4.53;;;2.22;;
48285;SDS011;34102;47.716;10.296;2023-04-03T20:18:55;3.30;;;1.30;;
48285;SDS011;34102;47.716;10.296;2023-04-03T20:21:32;3.20;;;1.60;;
48285;SDS011;34102;47.716;10.296;2023-04-03T20:23:58;3.17;;;1.45;;
48285;SDS011;34102;47.716;10.296;2023-04-03T20:26:25;2.75;;;1.40;;
48285;SDS011;34102;47.716;10.296;2023-04-03T20:28:55;4.10;;;1.58;;
48285;SDS011;34102;47.716;10.296;2023-04-03T20:31:21;4.53;;;1.60;;
48285;SDS011;34102;47.716;10.296;2023-04-03T20:33:47;5.47;;;1.33;;
48285;SDS011;34102;47.716;10.296;2023-04-03T20:36:14;2.33;;;1.15;;
48285;SDS011;34102;47.716;10.296;2023-04-03T20:38:40;3.45;;;0.95;;
48285;SDS011;34102;47.716;10.296;2023-04-03T20:41:06;3.00;;;1.50;;
48285;SDS011;34102;47.716;10.296;2023-04-03T20:43:31;3.25;;;1.63;;
48285;SDS011;34102;47.716;10.296;2023-04-03T20:46:01;3.58;;;1.80;;
48285;SDS011;34102;47.716;10.296;2023-04-03T20:48:27;2.95;;;1.50;;
48285;SDS011;34102;47.716;10.296;2023-04-03T20:50:54;2.53;;;1.42;;
48285;SDS011;34102;47.716;10.296;2023-04-03T20:53:21;2.65;;;1.30;;
48285;SDS011;34102;47.716;10.296;2023-04-03T20:55:56;2.90;;;1.50;;
48285;SDS011;34102;47.716;10.296;2023-04-03T20:58:24;3.03;;;1.67;;
48285;SDS011;34102;47.716;10.296;2023-04-03T21:00:50;5.75;;;1.73;;
48285;SDS011;34102;47.716;10.296;2023-04-03T21:03:15;5.00;;;1.52;;
48285;SDS011;34102;47.716;10.296;2023-04-03T21:05:41;3.60;;;1.50;;
48285;SDS011;34102;47.716;10.296;2023-04-03T21:21:32;2.92;;;1.42;;
48285;SDS011;34102;47.716;10.296;2023-04-03T21:24:01;3.42;;;1.73;;
48285;SDS011;34102;47.716;10.296;2023-04-03T21:26:27;3.28;;;1.55;;
48285;SDS011;34102;47.716;10.296;2023-04-03T21:28:53;3.72;;;1.38;;
48285;SDS011;34102;47.716;10.296;2023-04-03T21:31:21;4.88;;;1.98;;
48285;SDS011;34102;47.716;10.296;2023-04-03T21:33:47;5.22;;;1.80;;
48285;SDS011;34102;47.716;10.296;2023-04-03T21:36:12;3.10;;;1.40;;
48285;SDS011;34102;47.716;10.296;2023-04-03T21:38:38;5.32;;;1.50;;
48285;SDS011;34102;47.716;10.296;2023-04-03T21:41:03;3.88;;;1.88;;
48285;SDS011;34102;47.716;10.296;2023-04-03T21:43:29;2.92;;;1.27;;
48285;SDS011;34102;47.716;10.296;2023-04-03T21:45:57;3.83;;;1.45;;
48285;SDS011;34102;47.716;10.296;2023-04-03T21:48:24;4.95;;;1.30;;
48285;SDS011;34102;47.716;10.296;2023-04-03T21:50:49;3.60;;;1.55;;
48285;SDS011;34102;47.716;10.296;2023-04-03T21:53:20;4.38;;;2.05;;
48285;SDS011;34102;47.716;10.296;2023-04-03T21:55:53;4.15;;;1.40;;
48285;SDS011;34102;47.716;10.296;2023-04-03T21:58:18;4.40;;;1.25;;
